createdAt,value
2017-11-01T00:01:40.296Z,16.30
2017-11-01T00:04:08.485Z,17.33
2017-11-01T00:06:36.657Z,17.90
2017-11-01T00:09:04.866Z,17.62
2017-11-01T00:11:33.044Z,17.48
2017-11-01T00:14:01.237Z,16.92
2017-11-01T00:16:29.401Z,16.10
2017-11-01T00:18:57.563Z,15.40
2017-11-01T00:21:25.838Z,14.93
2017-11-01T00:23:54.013Z,15.80
2017-11-01T00:26:22.218Z,13.95
2017-11-01T00:28:50.411Z,15.45
2017-11-01T00:31:18.605Z,15.55
2017-11-01T00:33:46.825Z,13.82
2017-11-01T00:36:14.996Z,13.52
2017-11-01T00:38:43.301Z,13.55
2017-11-01T00:41:11.481Z,12.80
2017-11-01T00:43:39.641Z,12.70
2017-11-01T00:46:07.833Z,13.88
2017-11-01T00:48:36.028Z,14.52
2017-11-01T00:51:04.232Z,13.30
2017-11-01T00:53:32.427Z,12.80
2017-11-01T00:56:00.717Z,14.07
2017-11-01T00:58:28.897Z,14.32
2017-11-01T01:00:57.092Z,12.50
2017-11-01T01:03:25.268Z,12.70
2017-11-01T01:05:53.440Z,14.05
2017-11-01T01:08:21.647Z,13.82
2017-11-01T01:10:49.810Z,12.18
2017-11-01T01:13:18.884Z,15.15
2017-11-01T01:15:47.056Z,13.68
2017-11-01T01:18:15.232Z,14.48
2017-11-01T01:20:43.424Z,15.25
2017-11-01T01:23:12.387Z,14.02
2017-11-01T01:25:40.602Z,15.40
2017-11-01T01:28:09.546Z,14.13
2017-11-01T01:30:37.840Z,14.98
2017-11-01T01:33:06.013Z,13.98
2017-11-01T01:35:34.205Z,15.55
2017-11-01T01:38:03.229Z,15.98
2017-11-01T01:40:31.405Z,15.98
2017-11-01T01:42:59.567Z,14.18
2017-11-01T01:45:27.870Z,15.23
2017-11-01T01:47:56.110Z,14.80
2017-11-01T01:50:24.282Z,15.07
2017-11-01T01:52:53.256Z,15.00
2017-11-01T01:55:21.428Z,15.38
2017-11-01T01:57:49.623Z,14.95
2017-11-01T02:00:17.802Z,15.30
2017-11-01T02:02:46.117Z,14.23
2017-11-01T02:05:14.265Z,14.80
2017-11-01T02:07:42.451Z,14.70
2017-11-01T02:12:58.869Z,13.68
2017-11-01T02:18:16.195Z,13.80
2017-11-01T02:20:44.529Z,13.90
2017-11-01T02:23:12.749Z,13.10
2017-11-01T02:25:40.922Z,13.18
2017-11-01T02:28:09.104Z,13.70
2017-11-01T02:30:38.053Z,14.48
2017-11-01T02:33:06.984Z,13.25
2017-11-01T02:35:35.179Z,14.02
2017-11-01T02:38:03.360Z,14.18
2017-11-01T02:40:31.659Z,13.73
2017-11-01T02:42:59.864Z,13.90
2017-11-01T02:45:28.040Z,14.00
2017-11-01T02:47:56.240Z,13.95
2017-11-01T02:50:24.412Z,15.10
2017-11-01T02:52:52.739Z,13.32
2017-11-01T02:55:21.702Z,12.80
2017-11-01T02:57:49.912Z,13.15
2017-11-01T03:00:18.883Z,12.73
2017-11-01T03:02:47.054Z,14.98
2017-11-01T03:05:15.262Z,15.10
2017-11-01T03:07:44.196Z,14.85
2017-11-01T03:10:12.529Z,13.60
2017-11-01T03:12:41.509Z,13.43
2017-11-01T03:15:09.676Z,13.48
2017-11-01T03:17:37.884Z,13.68
2017-11-01T03:20:06.081Z,13.48
2017-11-01T03:22:34.252Z,13.88
2017-11-01T03:25:02.463Z,12.80
2017-11-01T03:27:30.648Z,14.73
2017-11-01T03:29:58.944Z,13.00
2017-11-01T03:32:27.117Z,14.25
2017-11-01T03:34:56.088Z,12.80
2017-11-01T03:37:24.261Z,14.25
2017-11-01T03:39:52.463Z,13.27
2017-11-01T03:42:21.396Z,12.50
2017-11-01T03:44:49.578Z,12.98
2017-11-01T03:47:17.873Z,13.80
2017-11-01T03:49:46.053Z,13.60
2017-11-01T03:52:14.264Z,14.13
2017-11-01T03:54:42.439Z,13.48
2017-11-01T03:57:10.598Z,14.32
2017-11-01T03:59:38.780Z,13.73
2017-11-01T04:02:06.987Z,13.60
2017-11-01T04:04:35.313Z,12.52
2017-11-01T04:07:04.253Z,13.30
2017-11-01T04:09:32.464Z,14.23
2017-11-01T04:12:00.631Z,13.30
2017-11-01T04:14:28.832Z,13.93
2017-11-01T04:16:57.040Z,13.98
2017-11-01T04:19:25.970Z,12.98
2017-11-01T04:21:54.289Z,14.60
2017-11-01T04:24:22.455Z,15.13
2017-11-01T04:26:51.432Z,13.38
2017-11-01T04:29:19.609Z,16.15
2017-11-01T04:31:48.547Z,14.07
2017-11-01T04:34:16.749Z,13.45
2017-11-01T04:36:44.919Z,14.25
2017-11-01T04:39:13.152Z,12.60
2017-11-01T04:41:41.319Z,13.95
2017-11-01T04:44:09.491Z,13.90
2017-11-01T04:46:37.683Z,13.62
2017-11-01T04:49:05.857Z,12.20
2017-11-01T04:51:34.063Z,13.00
2017-11-01T04:54:02.228Z,13.45
2017-11-01T04:56:30.535Z,12.48
2017-11-01T04:58:58.693Z,13.00
2017-11-01T05:01:26.877Z,14.27
2017-11-01T05:03:55.081Z,14.80
2017-11-01T05:06:24.013Z,15.07
2017-11-01T05:08:52.206Z,13.52
2017-11-01T05:11:20.444Z,12.95
2017-11-01T05:13:48.615Z,14.30
2017-11-01T05:16:16.926Z,14.85
2017-11-01T05:18:45.096Z,14.30
2017-11-01T05:21:13.301Z,14.65
2017-11-01T05:23:42.267Z,11.98
2017-11-01T05:26:10.432Z,12.65
2017-11-01T05:28:38.632Z,12.65
2017-11-01T05:31:06.807Z,13.57
2017-11-01T05:33:35.125Z,11.95
2017-11-01T05:36:03.313Z,12.65
2017-11-01T05:38:31.493Z,12.37
2017-11-01T05:40:59.704Z,13.40
2017-11-01T05:43:27.877Z,12.75
2017-11-01T05:45:56.087Z,13.30
2017-11-01T05:48:24.264Z,13.48
2017-11-01T05:50:52.444Z,12.32
2017-11-01T05:53:20.753Z,12.85
2017-11-01T05:55:48.930Z,12.98
2017-11-01T05:58:17.106Z,12.68
2017-11-01T06:00:45.288Z,12.77
2017-11-01T06:03:13.477Z,13.35
2017-11-01T06:05:41.680Z,13.00
2017-11-01T06:08:09.856Z,13.62
2017-11-01T06:10:38.176Z,13.77
2017-11-01T06:13:06.348Z,14.20
2017-11-01T06:15:34.532Z,15.10
2017-11-01T06:18:02.710Z,14.30
2017-11-01T06:20:30.893Z,14.45
2017-11-01T06:22:59.087Z,14.77
2017-11-01T06:25:28.068Z,14.98
2017-11-01T06:27:56.372Z,13.95
2017-11-01T06:30:24.564Z,15.60
2017-11-01T06:32:52.737Z,13.55
2017-11-01T06:35:20.956Z,14.93
2017-11-01T06:37:49.141Z,14.98
2017-11-01T06:40:18.089Z,13.52
2017-11-01T06:42:46.272Z,13.98
2017-11-01T06:45:14.450Z,13.02
2017-11-01T06:47:42.766Z,13.75
2017-11-01T06:50:11.715Z,14.43
2017-11-01T06:52:39.922Z,14.63
2017-11-01T06:55:08.126Z,15.27
2017-11-01T06:57:36.336Z,14.45
2017-11-01T07:00:04.515Z,14.13
2017-11-01T07:02:32.707Z,15.50
2017-11-01T07:05:01.026Z,14.95
2017-11-01T07:07:29.202Z,13.48
2017-11-01T07:09:57.408Z,14.60
2017-11-01T07:12:25.583Z,15.20
2017-11-01T07:14:53.760Z,14.07
2017-11-01T07:17:21.950Z,13.85
2017-11-01T07:26:05.332Z,14.80
2017-11-01T07:28:33.543Z,13.82
2017-11-01T07:31:01.713Z,15.88
2017-11-01T07:33:29.923Z,13.98
2017-11-01T07:35:58.097Z,13.15
2017-11-01T07:38:26.434Z,14.65
2017-11-01T07:40:54.636Z,14.25
2017-11-01T07:43:22.852Z,14.32
2017-11-01T07:45:51.025Z,14.20
2017-11-01T07:48:19.195Z,13.77
2017-11-01T07:50:47.400Z,14.60
2017-11-01T07:53:16.344Z,13.27
2017-11-01T07:55:44.506Z,12.27
2017-11-01T07:58:12.830Z,13.32
2017-11-01T08:00:41.005Z,14.60
2017-11-01T08:03:09.333Z,14.27
2017-11-01T08:05:37.509Z,12.68
2017-11-01T08:08:05.696Z,14.90
2017-11-01T08:10:33.928Z,13.38
2017-11-01T08:13:02.100Z,13.65
2017-11-01T08:15:30.329Z,13.55
2017-11-01T08:17:58.517Z,14.15
2017-11-01T08:20:26.726Z,15.15
2017-11-01T08:22:54.933Z,14.90
2017-11-01T08:25:23.140Z,15.70
2017-11-01T08:27:51.317Z,14.52
2017-11-01T08:30:19.547Z,13.60
2017-11-01T08:32:47.724Z,14.95
2017-11-01T08:35:15.948Z,13.82
2017-11-01T08:37:44.896Z,13.80
2017-11-01T08:40:13.140Z,14.40
2017-11-01T08:42:41.330Z,14.05
2017-11-01T08:45:09.539Z,14.18
2017-11-01T08:47:37.860Z,13.70
2017-11-01T08:50:06.076Z,14.87
2017-11-01T08:52:34.264Z,14.20
2017-11-01T08:55:02.509Z,15.80
2017-11-01T08:57:30.680Z,13.02
2017-11-01T08:59:58.872Z,13.90
2017-11-01T09:02:27.280Z,13.80
2017-11-01T09:04:55.439Z,13.30
2017-11-01T09:07:23.669Z,13.32
2017-11-01T09:09:51.889Z,14.20
2017-11-01T09:12:20.091Z,13.60
2017-11-01T09:14:48.298Z,14.05
2017-11-01T09:17:16.468Z,11.80
2017-11-01T09:19:44.700Z,12.60
2017-11-01T09:22:12.890Z,12.65
2017-11-01T09:24:41.857Z,12.70
2017-11-01T09:27:10.040Z,12.70
2017-11-01T09:29:38.237Z,13.43
2017-11-01T09:32:07.202Z,12.90
2017-11-01T09:34:35.527Z,12.13
2017-11-01T09:37:03.710Z,13.00
2017-11-01T09:39:31.906Z,13.68
2017-11-01T09:42:00.108Z,12.77
2017-11-01T09:44:28.374Z,13.15
2017-11-01T09:46:56.538Z,13.18
2017-11-01T09:49:24.714Z,14.20
2017-11-01T09:51:52.917Z,13.38
2017-11-01T09:54:21.868Z,12.98
2017-11-01T09:56:50.083Z,13.15
2017-11-01T09:59:19.038Z,13.27
2017-11-01T10:01:47.223Z,13.68
2017-11-01T10:04:15.613Z,14.00
2017-11-01T10:06:43.778Z,13.23
2017-11-01T10:09:11.955Z,13.80
2017-11-01T10:11:40.194Z,13.20
2017-11-01T10:14:08.392Z,13.20
2017-11-01T10:16:36.589Z,13.25
2017-11-01T10:19:04.832Z,13.70
2017-11-01T10:21:33.002Z,13.73
2017-11-01T10:24:01.177Z,13.32
2017-11-01T10:26:29.389Z,12.90
2017-11-01T10:28:57.578Z,12.27
2017-11-01T10:31:25.789Z,13.32
2017-11-01T10:33:53.983Z,13.18
2017-11-01T10:36:22.219Z,13.23
2017-11-01T10:38:51.203Z,12.07
2017-11-01T10:41:46.771Z,13.30
2017-11-01T10:44:21.395Z,11.35
2017-11-01T10:46:49.599Z,13.20
2017-11-01T10:49:17.790Z,12.48
2017-11-01T10:51:45.993Z,12.80
2017-11-01T10:54:14.221Z,12.77
2017-11-01T10:56:42.402Z,11.68
2017-11-01T10:59:11.383Z,14.70
2017-11-01T11:01:39.557Z,14.63
2017-11-01T11:04:07.742Z,13.25
2017-11-01T11:06:36.736Z,13.55
2017-11-01T11:09:05.729Z,13.48
2017-11-01T11:11:34.699Z,12.52
2017-11-01T11:14:02.888Z,13.13
2017-11-01T11:16:31.125Z,12.80
2017-11-01T11:18:59.314Z,12.90
2017-11-01T11:21:27.524Z,12.43
2017-11-01T11:23:56.477Z,12.93
2017-11-01T11:26:24.647Z,13.10
2017-11-01T11:28:52.863Z,11.40
2017-11-01T11:31:21.800Z,12.27
2017-11-01T11:33:50.128Z,10.95
2017-11-01T11:36:19.058Z,11.75
2017-11-01T11:38:47.283Z,11.90
2017-11-01T11:41:15.454Z,11.57
2017-11-01T11:43:43.690Z,11.65
2017-11-01T11:46:11.881Z,11.52
2017-11-01T11:48:40.217Z,12.48
2017-11-01T11:51:08.428Z,11.23
2017-11-01T11:53:36.622Z,11.27
2017-11-01T11:56:04.809Z,10.93
2017-11-01T11:58:33.008Z,11.80
2017-11-01T12:01:01.213Z,10.93
2017-11-01T12:03:29.410Z,11.00
2017-11-01T12:05:57.726Z,10.80
2017-11-01T12:08:26.694Z,9.82
2017-11-01T12:10:54.884Z,10.68
2017-11-01T12:13:23.894Z,11.32
2017-11-01T12:15:52.064Z,11.20
2017-11-01T12:18:20.414Z,10.32
2017-11-01T12:20:48.597Z,11.12
2017-11-01T12:23:16.772Z,9.85
2017-11-01T12:25:44.966Z,10.95
2017-11-01T12:28:13.188Z,10.43
2017-11-01T12:30:41.359Z,9.65
2017-11-01T12:33:09.588Z,9.80
2017-11-01T12:35:38.509Z,9.68
2017-11-01T12:38:06.878Z,10.88
2017-11-01T12:40:35.063Z,9.90
2017-11-01T12:43:03.286Z,10.20
2017-11-01T20:06:36.901Z,12.48
2017-11-01T20:09:05.112Z,12.25
2017-11-01T20:11:33.313Z,12.73
2017-11-01T20:14:01.543Z,13.52
2017-11-01T20:16:29.766Z,12.07
2017-11-01T20:18:57.948Z,13.60
2017-11-01T20:21:26.174Z,11.65
2017-11-01T20:23:54.363Z,11.82
2017-11-01T20:26:30.018Z,13.10
2017-11-01T20:29:05.442Z,12.80
2017-11-01T20:31:33.692Z,12.85
2017-11-01T20:34:01.865Z,10.48
2017-11-01T20:36:30.689Z,11.15
2017-11-01T20:38:59.036Z,11.80
2017-11-01T20:41:27.314Z,10.20
2017-11-01T20:43:56.341Z,10.93
2017-11-01T20:46:24.516Z,10.10
2017-11-01T20:48:52.709Z,10.95
2017-11-01T20:51:20.918Z,11.52
2017-11-01T20:53:49.189Z,11.68
2017-11-01T20:56:17.430Z,11.00
2017-11-01T20:58:45.618Z,13.50
2017-11-01T21:01:13.847Z,11.82
2017-11-01T21:03:42.074Z,13.68
2017-11-01T21:06:10.270Z,13.27
2017-11-01T21:08:38.457Z,14.07
2017-11-01T21:11:07.405Z,14.18
2017-11-01T21:13:35.653Z,14.52
2017-11-01T21:16:03.835Z,14.45
2017-11-01T21:18:32.037Z,13.57
2017-11-01T21:21:00.217Z,14.15
2017-11-01T21:23:28.433Z,14.43
2017-11-01T21:25:57.376Z,14.55
2017-11-01T21:28:25.563Z,15.43
2017-11-01T21:30:53.796Z,14.43
2017-11-01T21:33:21.986Z,13.55
2017-11-01T21:35:50.171Z,13.70
2017-11-01T21:38:18.351Z,12.88
2017-11-01T21:40:46.552Z,13.82
2017-11-01T21:43:14.773Z,13.70
2017-11-01T21:45:42.951Z,12.52
2017-11-01T21:48:11.284Z,13.00
2017-11-01T21:50:40.254Z,12.90
2017-11-01T21:53:08.470Z,13.15
2017-11-01T21:55:36.668Z,14.40
2017-11-01T21:58:04.874Z,13.50
2017-11-01T22:00:33.068Z,13.43
2017-11-01T22:03:01.284Z,13.25
2017-11-01T22:05:29.618Z,13.70
2017-11-01T22:07:57.862Z,13.80
2017-11-01T22:10:26.054Z,14.40
2017-11-01T22:12:54.244Z,13.30
2017-11-01T22:15:22.450Z,12.32
2017-11-01T22:17:50.630Z,12.50
2017-11-01T22:20:18.815Z,14.00
2017-11-01T22:22:47.130Z,12.05
2017-11-01T22:25:15.309Z,12.85
2017-11-01T22:27:43.500Z,12.55
2017-11-01T22:30:12.447Z,13.82
2017-11-01T22:32:40.613Z,11.80
2017-11-01T22:35:08.831Z,12.88
2017-11-01T22:37:36.989Z,11.85
2017-11-01T22:40:05.175Z,12.35
2017-11-01T22:42:34.165Z,12.52
2017-11-01T22:45:02.357Z,11.95
2017-11-01T22:47:30.551Z,11.15
2017-11-01T22:49:58.729Z,12.13
2017-11-01T22:52:26.913Z,12.52
2017-11-01T22:54:55.088Z,12.35
2017-11-01T22:57:23.331Z,11.43
2017-11-01T22:59:52.269Z,12.05
2017-11-01T23:02:20.426Z,11.45
2017-11-01T23:04:48.644Z,10.88
2017-11-01T23:07:16.841Z,11.70
2017-11-01T23:09:45.812Z,11.63
2017-11-01T23:12:14.023Z,12.27
2017-11-01T23:14:42.973Z,11.63
2017-11-01T23:17:11.286Z,10.48
2017-11-01T23:19:40.215Z,11.75
2017-11-01T23:22:08.392Z,11.50
2017-11-01T23:24:36.553Z,11.12
2017-11-01T23:27:04.758Z,11.50
2017-11-01T23:29:32.910Z,12.43
2017-11-01T23:32:01.229Z,11.27
2017-11-01T23:34:29.425Z,11.52
2017-11-01T23:36:58.361Z,11.75
2017-11-01T23:39:26.533Z,11.55
2017-11-01T23:41:54.787Z,10.80
2017-11-01T23:44:22.953Z,11.27
2017-11-01T23:46:51.130Z,11.27
2017-11-01T23:49:19.445Z,12.20
2017-11-01T23:51:47.632Z,10.10
2017-11-01T23:54:15.805Z,11.10
2017-11-01T23:56:43.990Z,11.55
2017-11-01T23:59:12.153Z,11.40
